MRN77 LFML-LFKT
Flight info
| Callsign | MRN77 |
|---|---|
| Flight time | N/A |
| Altitude | 19000 |
| Route | LUC A3 STP/N0304F290 A3 SODRI G374 RATAP |
| Aircraft | TBM8/L-SDFGRWY/S |
Departure
| Time | 2026-04-27 17:40 |
|---|---|
| Airport | Marseille Provence Airport (LFML) |
Arrival
| Time | N/A |
|---|---|
| Airport | Aérodrome de Corte (LFKT) |
| Time | Latitude | Longitude | Altitude | Speed | Heading |
|---|---|---|---|---|---|
| 2026-04-27 17:27 | 43.43917 | 5.21967 | 32 ft | 0 kts | 134° |
| 2026-04-27 17:34 | 43.43916 | 5.21967 | 32 ft | 1 kts | 134° |
| 2026-04-27 17:34 | 43.43880 | 5.22019 | 32 ft | 15 kts | 139° |
| 2026-04-27 17:35 | 43.43820 | 5.22051 | 32 ft | 7 kts | 169° |
| 2026-04-27 17:35 | 43.43785 | 5.21985 | 32 ft | 15 kts | 288° |
| 2026-04-27 17:35 | 43.43860 | 5.21867 | 32 ft | 18 kts | 304° |
| 2026-04-27 17:35 | 43.43957 | 5.21721 | 32 ft | 21 kts | 308° |
| 2026-04-27 17:36 | 43.43972 | 5.21650 | 32 ft | 4 kts | 246° |
| 2026-04-27 17:36 | 43.43960 | 5.21624 | 32 ft | 4 kts | 234° |
| 2026-04-27 17:36 | 43.43930 | 5.21565 | 32 ft | 11 kts | 246° |
| 2026-04-27 17:36 | 43.43954 | 5.21430 | 32 ft | 20 kts | 314° |
| 2026-04-27 17:37 | 43.44066 | 5.21270 | 32 ft | 24 kts | 315° |
| 2026-04-27 17:37 | 43.44171 | 5.21125 | 32 ft | 14 kts | 295° |
| 2026-04-27 17:37 | 43.44153 | 5.21047 | 31 ft | 8 kts | 240° |
| 2026-04-27 17:37 | 43.44124 | 5.20979 | 30 ft | 11 kts | 237° |
| 2026-04-27 17:38 | 43.44075 | 5.20859 | 28 ft | 18 kts | 242° |
| 2026-04-27 17:38 | 43.44007 | 5.20689 | 31 ft | 22 kts | 240° |
| 2026-04-27 17:38 | 43.43960 | 5.20599 | 28 ft | 6 kts | 195° |
| 2026-04-27 17:38 | 43.43901 | 5.20626 | 27 ft | 15 kts | 135° |
| 2026-04-27 17:39 | 43.43721 | 5.20864 | 28 ft | 64 kts | 136° |
| 2026-04-27 17:39 | 43.43311 | 5.21475 | 104 ft | 104 kts | 139° |
| 2026-04-27 17:39 | 43.42724 | 5.22247 | 312 ft | 131 kts | 140° |
| 2026-04-27 17:39 | 43.41998 | 5.23201 | 465 ft | 155 kts | 140° |
| 2026-04-27 17:40 | 43.41295 | 5.24440 | 483 ft | 180 kts | 117° |
| 2026-04-27 17:40 | 43.40768 | 5.25971 | 896 ft | 173 kts | 111° |
| 2026-04-27 17:40 | 43.40692 | 5.27703 | 1065 ft | 192 kts | 83° |
| 2026-04-27 17:40 | 43.40910 | 5.29462 | 1567 ft | 181 kts | 83° |
| 2026-04-27 17:41 | 43.41195 | 5.31115 | 2075 ft | 180 kts | 64° |
| 2026-04-27 17:41 | 43.42053 | 5.32368 | 2478 ft | 181 kts | 46° |
| 2026-04-27 17:41 | 43.42828 | 5.33712 | 2937 ft | 176 kts | 56° |
| 2026-04-27 17:41 | 43.43264 | 5.35251 | 3369 ft | 174 kts | 84° |
| 2026-04-27 17:42 | 43.43186 | 5.36911 | 3799 ft | 174 kts | 94° |
| 2026-04-27 17:42 | 43.43104 | 5.38579 | 4282 ft | 174 kts | 92° |
| 2026-04-27 17:42 | 43.43033 | 5.40250 | 4771 ft | 176 kts | 92° |
| 2026-04-27 17:42 | 43.42954 | 5.41935 | 5219 ft | 178 kts | 92° |
| 2026-04-27 17:43 | 43.42868 | 5.43637 | 5679 ft | 179 kts | 92° |
| 2026-04-27 17:43 | 43.42782 | 5.45356 | 6136 ft | 181 kts | 92° |
| 2026-04-27 17:43 | 43.42694 | 5.47090 | 6616 ft | 182 kts | 91° |
| 2026-04-27 17:43 | 43.42610 | 5.48823 | 7098 ft | 181 kts | 91° |
| 2026-04-27 17:44 | 43.42526 | 5.50561 | 7560 ft | 183 kts | 91° |
| 2026-04-27 17:44 | 43.42441 | 5.52314 | 8018 ft | 185 kts | 91° |
| 2026-04-27 17:44 | 43.42354 | 5.54084 | 8465 ft | 186 kts | 91° |
| 2026-04-27 17:44 | 43.42264 | 5.55889 | 8920 ft | 187 kts | 92° |
| 2026-04-27 17:45 | 43.42174 | 5.57684 | 9371 ft | 189 kts | 92° |
| 2026-04-27 17:45 | 43.42082 | 5.59497 | 9821 ft | 190 kts | 92° |
| 2026-04-27 17:45 | 43.41990 | 5.61314 | 10243 ft | 192 kts | 92° |
| 2026-04-27 17:45 | 43.41901 | 5.63089 | 10634 ft | 193 kts | 92° |
| 2026-04-27 17:46 | 43.41808 | 5.64896 | 11046 ft | 193 kts | 92° |
| 2026-04-27 17:46 | 43.41715 | 5.66741 | 11446 ft | 194 kts | 92° |
| 2026-04-27 17:46 | 43.41620 | 5.68591 | 11846 ft | 195 kts | 92° |
| 2026-04-27 17:46 | 43.41526 | 5.70456 | 12252 ft | 196 kts | 92° |
| 2026-04-27 17:47 | 43.41434 | 5.72236 | 12636 ft | 197 kts | 92° |
| 2026-04-27 17:47 | 43.41370 | 5.73480 | 12907 ft | 197 kts | 92° |
| 2026-04-27 17:47 | 43.41232 | 5.76007 | 13440 ft | 199 kts | 93° |
| 2026-04-27 17:47 | 43.41124 | 5.77907 | 13838 ft | 200 kts | 93° |
| 2026-04-27 17:48 | 43.41016 | 5.79809 | 14191 ft | 201 kts | 93° |
| 2026-04-27 17:48 | 43.40913 | 5.81640 | 14513 ft | 202 kts | 93° |
| 2026-04-27 17:48 | 43.40803 | 5.83576 | 14854 ft | 204 kts | 92° |
| 2026-04-27 17:48 | 43.40692 | 5.85525 | 15194 ft | 205 kts | 92° |
| 2026-04-27 17:49 | 43.40581 | 5.87489 | 15534 ft | 207 kts | 92° |
| 2026-04-27 17:49 | 43.40467 | 5.89470 | 15873 ft | 208 kts | 92° |
| 2026-04-27 17:49 | 43.40354 | 5.91456 | 16207 ft | 210 kts | 92° |
| 2026-04-27 17:49 | 43.40246 | 5.93367 | 16525 ft | 211 kts | 92° |
| 2026-04-27 17:50 | 43.40129 | 5.95391 | 16861 ft | 213 kts | 92° |
| 2026-04-27 17:50 | 43.39894 | 5.99476 | 17526 ft | 216 kts | 92° |
| 2026-04-27 17:50 | 43.39780 | 6.01442 | 17848 ft | 218 kts | 91° |
| 2026-04-27 17:51 | 43.39660 | 6.03523 | 18181 ft | 219 kts | 91° |
| 2026-04-27 17:51 | 43.39539 | 6.05619 | 18498 ft | 220 kts | 91° |
| 2026-04-27 17:51 | 43.39416 | 6.07715 | 18795 ft | 221 kts | 91° |
| 2026-04-27 17:51 | 43.39301 | 6.09731 | 19013 ft | 226 kts | 91° |
| 2026-04-27 17:52 | 43.39168 | 6.11948 | 19053 ft | 239 kts | 92° |
| 2026-04-27 17:52 | 43.39018 | 6.14286 | 19070 ft | 251 kts | 93° |
| 2026-04-27 17:52 | 43.38858 | 6.16726 | 19080 ft | 261 kts | 93° |
| 2026-04-27 17:52 | 43.38749 | 6.18383 | 19085 ft | 267 kts | 93° |
| 2026-04-27 17:53 | 43.38525 | 6.21839 | 19084 ft | 276 kts | 93° |
| 2026-04-27 17:53 | 43.38218 | 6.24458 | 19078 ft | 282 kts | 108° |
| 2026-04-27 17:53 | 43.37121 | 6.26701 | 19076 ft | 288 kts | 138° |
| 2026-04-27 17:53 | 43.35559 | 6.28197 | 19083 ft | 292 kts | 146° |
| 2026-04-27 17:54 | 43.34446 | 6.29247 | 19080 ft | 293 kts | 144° |
| 2026-04-27 17:54 | 43.33138 | 6.30522 | 19078 ft | 295 kts | 144° |
| 2026-04-27 17:54 | 43.31857 | 6.31776 | 19083 ft | 296 kts | 144° |
| 2026-04-27 17:54 | 43.29607 | 6.33975 | 19081 ft | 298 kts | 144° |
| 2026-04-27 17:55 | 43.28464 | 6.35090 | 19083 ft | 298 kts | 144° |
| 2026-04-27 17:55 | 43.26793 | 6.36721 | 19084 ft | 299 kts | 144° |
| 2026-04-27 17:55 | 43.25072 | 6.38394 | 19082 ft | 300 kts | 144° |
| 2026-04-27 17:55 | 43.23438 | 6.40159 | 19074 ft | 300 kts | 133° |
| 2026-04-27 17:56 | 43.22377 | 6.42585 | 19071 ft | 298 kts | 107° |
| 2026-04-27 17:56 | 43.22132 | 6.45383 | 19078 ft | 296 kts | 88° |
| 2026-04-27 17:56 | 43.22131 | 6.48201 | 19085 ft | 296 kts | 90° |
| 2026-04-27 17:56 | 43.22076 | 6.51015 | 19083 ft | 296 kts | 91° |
| 2026-04-27 17:57 | 43.22019 | 6.53838 | 19088 ft | 296 kts | 90° |
| 2026-04-27 17:57 | 43.21966 | 6.56657 | 19091 ft | 296 kts | 90° |
| 2026-04-27 17:57 | 43.21885 | 6.59477 | 19090 ft | 296 kts | 93° |
| 2026-04-27 17:57 | 43.21672 | 6.62284 | 19093 ft | 297 kts | 97° |
| 2026-04-27 17:58 | 43.21358 | 6.65079 | 19093 ft | 297 kts | 98° |
| 2026-04-27 17:58 | 43.21042 | 6.67877 | 19092 ft | 297 kts | 98° |
| 2026-04-27 17:58 | 43.20727 | 6.70666 | 19095 ft | 297 kts | 98° |
| 2026-04-27 17:58 | 43.20413 | 6.73469 | 19095 ft | 298 kts | 98° |
| 2026-04-27 17:59 | 43.20095 | 6.76274 | 19096 ft | 298 kts | 98° |
| 2026-04-27 17:59 | 43.19774 | 6.79084 | 19096 ft | 299 kts | 98° |
| 2026-04-27 17:59 | 43.19453 | 6.81892 | 19102 ft | 299 kts | 98° |
| 2026-04-27 17:59 | 43.19130 | 6.84716 | 19102 ft | 299 kts | 98° |
| 2026-04-27 18:00 | 43.18807 | 6.87534 | 19101 ft | 299 kts | 98° |
| 2026-04-27 18:00 | 43.18485 | 6.90352 | 19098 ft | 300 kts | 98° |
| 2026-04-27 18:00 | 43.18161 | 6.93175 | 19097 ft | 300 kts | 98° |
| 2026-04-27 18:00 | 43.17837 | 6.95995 | 19099 ft | 300 kts | 98° |
| 2026-04-27 18:01 | 43.17512 | 6.98815 | 19102 ft | 300 kts | 98° |
| 2026-04-27 18:01 | 43.17186 | 7.01635 | 19100 ft | 300 kts | 98° |
| 2026-04-27 18:01 | 43.16859 | 7.04461 | 19100 ft | 300 kts | 98° |
| 2026-04-27 18:01 | 43.16533 | 7.07276 | 19102 ft | 300 kts | 98° |
| 2026-04-27 18:02 | 43.16205 | 7.10096 | 19100 ft | 300 kts | 98° |
| 2026-04-27 18:02 | 43.15877 | 7.12918 | 19098 ft | 300 kts | 98° |
| 2026-04-27 18:02 | 43.15549 | 7.15738 | 19102 ft | 300 kts | 98° |
| 2026-04-27 18:02 | 43.15219 | 7.18558 | 19101 ft | 300 kts | 98° |
| 2026-04-27 18:03 | 43.14889 | 7.21379 | 19104 ft | 300 kts | 98° |
| 2026-04-27 18:03 | 43.14558 | 7.24204 | 19096 ft | 300 kts | 98° |
| 2026-04-27 18:03 | 43.14227 | 7.27023 | 19100 ft | 300 kts | 98° |
| 2026-04-27 18:03 | 43.13895 | 7.29842 | 19102 ft | 300 kts | 98° |
| 2026-04-27 18:04 | 43.13558 | 7.32699 | 19103 ft | 300 kts | 98° |
| 2026-04-27 18:04 | 43.13228 | 7.35487 | 19103 ft | 300 kts | 98° |
| 2026-04-27 18:04 | 43.12893 | 7.38309 | 19105 ft | 301 kts | 98° |
| 2026-04-27 18:04 | 43.12557 | 7.41132 | 19108 ft | 301 kts | 99° |
| 2026-04-27 18:05 | 43.12215 | 7.43998 | 19102 ft | 301 kts | 99° |
| 2026-04-27 18:05 | 43.11879 | 7.46819 | 19104 ft | 301 kts | 99° |
| 2026-04-27 18:05 | 43.11541 | 7.49646 | 19103 ft | 301 kts | 99° |
| 2026-04-27 18:05 | 43.11202 | 7.52473 | 19104 ft | 301 kts | 99° |
| 2026-04-27 18:06 | 43.10862 | 7.55301 | 19106 ft | 301 kts | 99° |
| 2026-04-27 18:06 | 43.10522 | 7.58128 | 19100 ft | 301 kts | 99° |
| 2026-04-27 18:06 | 43.10180 | 7.60956 | 19103 ft | 301 kts | 99° |
| 2026-04-27 18:06 | 43.09835 | 7.63791 | 19099 ft | 302 kts | 99° |
| 2026-04-27 18:07 | 43.09490 | 7.66620 | 19102 ft | 302 kts | 99° |
| 2026-04-27 18:07 | 43.09143 | 7.69451 | 19102 ft | 302 kts | 99° |
| 2026-04-27 18:07 | 43.08796 | 7.72280 | 19103 ft | 302 kts | 99° |
| 2026-04-27 18:07 | 43.08448 | 7.75112 | 19102 ft | 302 kts | 99° |
| 2026-04-27 18:08 | 43.08099 | 7.77950 | 19100 ft | 302 kts | 99° |
| 2026-04-27 18:08 | 43.07748 | 7.80777 | 19101 ft | 302 kts | 99° |
| 2026-04-27 18:08 | 43.07398 | 7.83611 | 19103 ft | 302 kts | 99° |
| 2026-04-27 18:08 | 43.07051 | 7.86447 | 19101 ft | 302 kts | 99° |
| 2026-04-27 18:09 | 43.06704 | 7.89279 | 19101 ft | 303 kts | 99° |
| 2026-04-27 18:09 | 43.06355 | 7.92116 | 19103 ft | 303 kts | 99° |
| 2026-04-27 18:09 | 43.06005 | 7.94955 | 19099 ft | 303 kts | 99° |
| 2026-04-27 18:09 | 43.05654 | 7.97795 | 19101 ft | 303 kts | 99° |
| 2026-04-27 18:10 | 43.05301 | 8.00633 | 19101 ft | 303 kts | 99° |
| 2026-04-27 18:10 | 43.04949 | 8.03474 | 19102 ft | 303 kts | 99° |
| 2026-04-27 18:10 | 43.04594 | 8.06316 | 19105 ft | 303 kts | 99° |
| 2026-04-27 18:10 | 43.04240 | 8.09157 | 19101 ft | 303 kts | 99° |
| 2026-04-27 18:11 | 43.03883 | 8.12003 | 19102 ft | 303 kts | 99° |
| 2026-04-27 18:11 | 43.03528 | 8.14847 | 19102 ft | 304 kts | 99° |
| 2026-04-27 18:11 | 43.03171 | 8.17691 | 19101 ft | 304 kts | 99° |
| 2026-04-27 18:11 | 43.02814 | 8.20535 | 19101 ft | 304 kts | 99° |
| 2026-04-27 18:12 | 43.02455 | 8.23381 | 19102 ft | 304 kts | 99° |
| 2026-04-27 18:12 | 43.02096 | 8.26231 | 19105 ft | 304 kts | 99° |
| 2026-04-27 18:12 | 43.01736 | 8.29077 | 19105 ft | 304 kts | 99° |
| 2026-04-27 18:12 | 43.01539 | 8.30832 | 19103 ft | 304 kts | 97° |
| 2026-04-27 18:13 | 43.01342 | 8.33462 | 19103 ft | 304 kts | 95° |
| 2026-04-27 18:13 | 43.01078 | 8.36322 | 19105 ft | 304 kts | 102° |
| 2026-04-27 18:13 | 43.00428 | 8.39065 | 19105 ft | 304 kts | 113° |
| 2026-04-27 18:13 | 42.99484 | 8.41658 | 19104 ft | 305 kts | 118° |
| 2026-04-27 18:14 | 42.98498 | 8.44220 | 19103 ft | 305 kts | 118° |
| 2026-04-27 18:14 | 42.97500 | 8.46774 | 19104 ft | 305 kts | 118° |
| 2026-04-27 18:14 | 42.96498 | 8.49321 | 19100 ft | 305 kts | 118° |
| 2026-04-27 18:14 | 42.95492 | 8.51877 | 19101 ft | 305 kts | 118° |
| 2026-04-27 18:15 | 42.94486 | 8.54427 | 19104 ft | 305 kts | 118° |
| 2026-04-27 18:15 | 42.93481 | 8.56980 | 19003 ft | 308 kts | 118° |
| 2026-04-27 18:15 | 42.92423 | 8.59616 | 18626 ft | 316 kts | 120° |
| 2026-04-27 18:15 | 42.91354 | 8.62207 | 18237 ft | 319 kts | 120° |
| 2026-04-27 18:16 | 42.90262 | 8.64852 | 17813 ft | 321 kts | 120° |
| 2026-04-27 18:16 | 42.89157 | 8.67541 | 17388 ft | 321 kts | 120° |
| 2026-04-27 18:16 | 42.88075 | 8.70198 | 16970 ft | 320 kts | 120° |
| 2026-04-27 18:16 | 42.87008 | 8.72855 | 16559 ft | 318 kts | 119° |
| 2026-04-27 18:17 | 42.85957 | 8.75500 | 16152 ft | 317 kts | 119° |
| 2026-04-27 18:17 | 42.84915 | 8.78131 | 15756 ft | 314 kts | 118° |
| 2026-04-27 18:17 | 42.83884 | 8.80738 | 15360 ft | 312 kts | 118° |
| 2026-04-27 18:17 | 42.82908 | 8.83208 | 14992 ft | 310 kts | 118° |
| 2026-04-27 18:18 | 42.81888 | 8.85781 | 14601 ft | 308 kts | 118° |
| 2026-04-27 18:18 | 42.80874 | 8.88335 | 14221 ft | 305 kts | 118° |
| 2026-04-27 18:18 | 42.79868 | 8.90866 | 13842 ft | 303 kts | 118° |
| 2026-04-27 18:18 | 42.78869 | 8.93374 | 13434 ft | 300 kts | 118° |
| 2026-04-27 18:19 | 42.77881 | 8.95858 | 13039 ft | 297 kts | 118° |
| 2026-04-27 18:19 | 42.77290 | 8.97350 | 12805 ft | 295 kts | 118° |
| 2026-04-27 18:19 | 42.76344 | 8.99817 | 12420 ft | 293 kts | 117° |
| 2026-04-27 18:19 | 42.75400 | 9.02264 | 12038 ft | 290 kts | 118° |
| 2026-04-27 18:20 | 42.74453 | 9.04677 | 11663 ft | 288 kts | 118° |
| 2026-04-27 18:20 | 42.73508 | 9.07067 | 11291 ft | 286 kts | 118° |
| 2026-04-27 18:20 | 42.72496 | 9.09375 | 10933 ft | 284 kts | 129° |
| 2026-04-27 18:20 | 42.70873 | 9.10817 | 10599 ft | 283 kts | 164° |
| 2026-04-27 18:21 | 42.68937 | 9.11221 | 10255 ft | 281 kts | 174° |
| 2026-04-27 18:21 | 42.67028 | 9.11497 | 9891 ft | 270 kts | 173° |
| 2026-04-27 18:21 | 42.65188 | 9.11845 | 9490 ft | 263 kts | 171° |
| 2026-04-27 18:21 | 42.63396 | 9.12216 | 9102 ft | 259 kts | 171° |
| 2026-04-27 18:22 | 42.61623 | 9.12578 | 8715 ft | 256 kts | 171° |
| 2026-04-27 18:22 | 42.59868 | 9.12929 | 8340 ft | 254 kts | 171° |
| 2026-04-27 18:22 | 42.58126 | 9.13277 | 7969 ft | 252 kts | 172° |
| 2026-04-27 18:22 | 42.56396 | 9.13625 | 7607 ft | 250 kts | 171° |
| 2026-04-27 18:23 | 42.54678 | 9.13973 | 7242 ft | 249 kts | 172° |
| 2026-04-27 18:23 | 42.52982 | 9.14315 | 6875 ft | 240 kts | 172° |
| 2026-04-27 18:23 | 42.51384 | 9.14647 | 6513 ft | 226 kts | 171° |
| 2026-04-27 18:23 | 42.49863 | 9.14999 | 6164 ft | 217 kts | 170° |
| 2026-04-27 18:24 | 42.48399 | 9.15339 | 5882 ft | 211 kts | 170° |
| 2026-04-27 18:24 | 42.46957 | 9.15658 | 5605 ft | 208 kts | 171° |
| 2026-04-27 18:24 | 42.45536 | 9.15955 | 5329 ft | 205 kts | 171° |
| 2026-04-27 18:24 | 42.44134 | 9.16244 | 5071 ft | 203 kts | 171° |
| 2026-04-27 18:25 | 42.42748 | 9.16529 | 4840 ft | 201 kts | 171° |
| 2026-04-27 18:25 | 42.41368 | 9.16809 | 4571 ft | 199 kts | 171° |
| 2026-04-27 18:25 | 42.40003 | 9.17085 | 4315 ft | 198 kts | 171° |
| 2026-04-27 18:25 | 42.38641 | 9.17357 | 4065 ft | 197 kts | 173° |
| 2026-04-27 18:26 | 42.37304 | 9.17474 | 3814 ft | 189 kts | 178° |
| 2026-04-27 18:26 | 42.36015 | 9.17474 | 3563 ft | 182 kts | 182° |
| 2026-04-27 18:26 | 42.34795 | 9.17391 | 3326 ft | 166 kts | 185° |
| 2026-04-27 18:26 | 42.33706 | 9.17232 | 3192 ft | 149 kts | 188° |
| 2026-04-27 18:27 | 42.32770 | 9.17057 | 3118 ft | 125 kts | 188° |
| 2026-04-27 18:27 | 42.31984 | 9.17175 | 3097 ft | 109 kts | 151° |
| 2026-04-27 18:27 | 42.31332 | 9.17630 | 3090 ft | 103 kts | 147° |
| 2026-04-27 18:27 | 42.30754 | 9.18174 | 3046 ft | 103 kts | 149° |
| 2026-04-27 18:28 | 42.30202 | 9.18809 | 2955 ft | 106 kts | 127° |
| 2026-04-27 18:28 | 42.29688 | 9.19732 | 2586 ft | 132 kts | 124° |
| 2026-04-27 18:28 | 42.29251 | 9.20781 | 2303 ft | 115 kts | 119° |
| 2026-04-27 18:28 | 42.28943 | 9.21539 | 2208 ft | 81 kts | 122° |
| 2026-04-27 18:29 | 42.28751 | 9.21989 | 2203 ft | 82 kts | 118° |
| 2026-04-27 18:29 | 42.28500 | 9.22692 | 2275 ft | 84 kts | 115° |
| 2026-04-27 18:29 | 42.28220 | 9.23374 | 2430 ft | 81 kts | 116° |
| 2026-04-27 18:29 | 42.27971 | 9.24038 | 2587 ft | 82 kts | 114° |
| 2026-04-27 18:30 | 42.27537 | 9.24620 | 2551 ft | 98 kts | 172° |
| 2026-04-27 18:30 | 42.26926 | 9.24232 | 2457 ft | 107 kts | 240° |
| 2026-04-27 18:30 | 42.27044 | 9.23251 | 2190 ft | 112 kts | 303° |
| 2026-04-27 18:30 | 42.27381 | 9.22305 | 1860 ft | 112 kts | 289° |
| 2026-04-27 18:31 | 42.27682 | 9.21410 | 1492 ft | 97 kts | 302° |
| 2026-04-27 18:31 | 42.28012 | 9.20690 | 1230 ft | 83 kts | 304° |
| 2026-04-27 18:31 | 42.28358 | 9.20094 | 1160 ft | 84 kts | 311° |
| 2026-04-27 18:31 | 42.28761 | 9.19510 | 1297 ft | 85 kts | 318° |
| 2026-04-27 18:32 | 42.29212 | 9.18997 | 1476 ft | 93 kts | 320° |
| 2026-04-27 18:32 | 42.29834 | 9.18454 | 1776 ft | 111 kts | 335° |
| 2026-04-27 18:32 | 42.30658 | 9.18189 | 2075 ft | 135 kts | 358° |
| 2026-04-27 18:32 | 42.31617 | 9.18303 | 2559 ft | 142 kts | 14° |
| 2026-04-27 18:33 | 42.32579 | 9.18765 | 3019 ft | 150 kts | 24° |
| 2026-04-27 18:33 | 42.33424 | 9.19535 | 3600 ft | 150 kts | 52° |
| 2026-04-27 18:33 | 42.33749 | 9.20909 | 3971 ft | 162 kts | 94° |
| 2026-04-27 18:33 | 42.33356 | 9.22330 | 4440 ft | 166 kts | 129° |
| 2026-04-27 18:34 | 42.32441 | 9.23182 | 5071 ft | 155 kts | 161° |
| 2026-04-27 18:34 | 42.31333 | 9.23650 | 5261 ft | 179 kts | 166° |
| 2026-04-27 18:34 | 42.30065 | 9.23904 | 5580 ft | 185 kts | 176° |
| 2026-04-27 18:34 | 42.28761 | 9.23921 | 5844 ft | 194 kts | 181° |
| 2026-04-27 18:35 | 42.27433 | 9.24441 | 5925 ft | 207 kts | 155° |
| 2026-04-27 18:35 | 42.26104 | 9.25321 | 5975 ft | 218 kts | 154° |
| 2026-04-27 18:35 | 42.24732 | 9.26268 | 5994 ft | 225 kts | 153° |
| 2026-04-27 18:35 | 42.23301 | 9.27151 | 5999 ft | 228 kts | 167° |
| 2026-04-27 18:36 | 42.21752 | 9.26891 | 5993 ft | 230 kts | 208° |
| 2026-04-27 18:36 | 42.20632 | 9.25375 | 6046 ft | 228 kts | 234° |
| 2026-04-27 18:36 | 42.19694 | 9.23759 | 6553 ft | 211 kts | 229° |
| 2026-04-27 18:36 | 42.18747 | 9.22321 | 7032 ft | 200 kts | 227° |
| 2026-04-27 18:37 | 42.17841 | 9.20944 | 7511 ft | 194 kts | 227° |
| 2026-04-27 18:37 | 42.16969 | 9.19589 | 7998 ft | 189 kts | 228° |
| 2026-04-27 18:37 | 42.16123 | 9.18249 | 8487 ft | 186 kts | 228° |
| 2026-04-27 18:37 | 42.15296 | 9.16931 | 8993 ft | 183 kts | 227° |
| 2026-04-27 18:38 | 42.14441 | 9.15575 | 9134 ft | 201 kts | 229° |
| 2026-04-27 18:38 | 42.13511 | 9.14041 | 9099 ft | 221 kts | 230° |
| 2026-04-27 18:38 | 42.12519 | 9.12370 | 9033 ft | 235 kts | 230° |
| 2026-04-27 18:38 | 42.11475 | 9.10613 | 8796 ft | 242 kts | 231° |
| 2026-04-27 18:39 | 42.10663 | 9.08659 | 8541 ft | 242 kts | 257° |
| 2026-04-27 18:39 | 42.10492 | 9.06409 | 8295 ft | 242 kts | 265° |
| 2026-04-27 18:39 | 42.09978 | 9.04306 | 8072 ft | 239 kts | 232° |
| 2026-04-27 18:39 | 42.08900 | 9.02628 | 7682 ft | 229 kts | 227° |
| 2026-04-27 18:40 | 42.07694 | 9.00786 | 7086 ft | 208 kts | 232° |
| 2026-04-27 18:40 | 42.07016 | 8.99573 | 6703 ft | 201 kts | 230° |
| 2026-04-27 18:40 | 42.06154 | 8.98176 | 6401 ft | 185 kts | 229° |
| 2026-04-27 18:40 | 42.05437 | 8.96884 | 6152 ft | 162 kts | 245° |
| 2026-04-27 18:41 | 42.05178 | 8.95497 | 6045 ft | 145 kts | 259° |
| 2026-04-27 18:41 | 42.04928 | 8.94197 | 5595 ft | 144 kts | 250° |
| 2026-04-27 18:41 | 42.04523 | 8.92931 | 4991 ft | 152 kts | 245° |
| 2026-04-27 18:41 | 42.04015 | 8.91676 | 4406 ft | 152 kts | 239° |
| 2026-04-27 18:42 | 42.03427 | 8.90506 | 3852 ft | 150 kts | 237° |
| 2026-04-27 18:42 | 42.03026 | 8.89737 | 3475 ft | 146 kts | 236° |
| 2026-04-27 18:42 | 42.02223 | 8.88328 | 2636 ft | 135 kts | 232° |
| 2026-04-27 18:42 | 42.01648 | 8.87375 | 2205 ft | 127 kts | 229° |
| 2026-04-27 18:43 | 42.01008 | 8.86600 | 1853 ft | 122 kts | 219° |
| 2026-04-27 18:43 | 42.00354 | 8.85878 | 1710 ft | 121 kts | 219° |
| 2026-04-27 18:43 | 41.99712 | 8.85188 | 1525 ft | 114 kts | 219° |
| 2026-04-27 18:43 | 41.99087 | 8.84580 | 1340 ft | 108 kts | 212° |
| 2026-04-27 18:44 | 41.98429 | 8.84062 | 1221 ft | 104 kts | 209° |
| 2026-04-27 18:44 | 41.97838 | 8.83631 | 1148 ft | 95 kts | 207° |
| 2026-04-27 18:44 | 41.97230 | 8.83245 | 1003 ft | 97 kts | 205° |
| 2026-04-27 18:44 | 41.96619 | 8.82866 | 896 ft | 96 kts | 205° |
| 2026-04-27 18:45 | 41.96050 | 8.82498 | 833 ft | 87 kts | 204° |
| 2026-04-27 18:45 | 41.95496 | 8.82147 | 763 ft | 90 kts | 204° |
| 2026-04-27 18:45 | 41.94914 | 8.81810 | 593 ft | 91 kts | 204° |
| 2026-04-27 18:45 | 41.94366 | 8.81456 | 406 ft | 85 kts | 207° |
| 2026-04-27 18:46 | 41.93821 | 8.81123 | 269 ft | 86 kts | 203° |
| 2026-04-27 18:46 | 41.93269 | 8.80792 | 143 ft | 86 kts | 206° |
| 2026-04-27 18:46 | 41.92740 | 8.80464 | 27 ft | 76 kts | 206° |
| 2026-04-27 18:46 | 41.92370 | 8.80225 | 20 ft | 38 kts | 206° |
| 2026-04-27 18:47 | 41.92217 | 8.80131 | 20 ft | 13 kts | 202° |
| 2026-04-27 18:47 | 41.92158 | 8.80097 | 20 ft | 10 kts | 203° |
| 2026-04-27 18:47 | 41.92062 | 8.80042 | 20 ft | 23 kts | 204° |
| 2026-04-27 18:47 | 41.91915 | 8.79947 | 19 ft | 16 kts | 206° |
| 2026-04-27 18:48 | 41.91792 | 8.79873 | 19 ft | 26 kts | 204° |
| 2026-04-27 18:48 | 41.91637 | 8.79771 | 18 ft | 19 kts | 207° |
| 2026-04-27 18:48 | 41.91493 | 8.79686 | 17 ft | 29 kts | 205° |
| 2026-04-27 18:48 | 41.91326 | 8.79584 | 18 ft | 17 kts | 205° |
| 2026-04-27 18:49 | 41.91231 | 8.79521 | 18 ft | 17 kts | 223° |
| 2026-04-27 18:49 | 41.91237 | 8.79430 | 19 ft | 6 kts | 340° |
| 2026-04-27 18:49 | 41.91295 | 8.79398 | 19 ft | 15 kts | 333° |
| 2026-04-27 18:49 | 41.91427 | 8.79334 | 19 ft | 23 kts | 0° |
| 2026-04-27 18:50 | 41.91545 | 8.79383 | 19 ft | 18 kts | 22° |
| 2026-04-27 18:50 | 41.91643 | 8.79442 | 19 ft | 27 kts | 25° |
| 2026-04-27 18:50 | 41.91845 | 8.79571 | 19 ft | 25 kts | 23° |
| 2026-04-27 18:50 | 41.91944 | 8.79577 | 20 ft | 9 kts | 300° |
| 2026-04-27 18:51 | 41.91980 | 8.79565 | 20 ft | 4 kts | 350° |
| 2026-04-27 18:51 | 41.91981 | 8.79564 | 20 ft | 0 kts | 351° |